Hovedside
METAR-TAF:

METAR-TAF

Lufthavner :

Benazir Bhutto internasjonale lufthavn

Islamabad, Pakistan

breddegrad: 33-37N, lengdegrad: 073-06E, høyde over havet: 507 m

Gjeldene værobservasjon

Denne rapporten ble laget for 17 minutter siden, klokken 04:00 UTC
Vind 4 kt fra Nordøst
Temperatur 20°C
Luftfuktighet 49%
Trykk 1018 hPa
Sikt: 7000 m

METAR: OPRN 240400Z 05004KT 7000 NSC 20/09 Q1018 NOSIG RMK A3007

Tid: 09:17 (04:17 UTC)

Varsel

Denne rapporten ble laget for 6 timer og 47 minutter siden, klokken 21:30 UTC
Varsel gyldig fra 24. klokken 00 UTC til 25. klokken 06 UTC
Vind 10 kt fra Sørøst
Sikt: 4000 m
dis
Blir
fra 24. klokken 04 UTC til 24. klokken 06 UTC
Sikt 10 km eller mer
ingen skyer under 1500 m og ingen bygeskyer
Midlertidig
fra 24. klokken 12 UTC til 24. klokken 24 UTC
Sikt: 8000 m
Midlertidig
fra 25. klokken 00 UTC til 25. klokken 04 UTC
Sikt: 4000 m
dis

TAF: OPRN 232130Z 2400/2506 13010KT 4000 HZ NSC BECMG 2404/2406 CAVOK TEMPO 2412/2424 8000 NSC TEMPO 2500/2504 4000 HZ

Værobservasjoner og værvarsel for over 4000 flyplasser (METAR- og TAF-rapporter).

Tilgjengelige stasjoner er representert av de røde og gule prikkene på kartet.

Hold musepekeren over prikken for å se navnet på stasjonen.

Klikk så for å se værobservasjoner og -varsler.

For å forandre kartet kan du klikke på den grønne knappen med svart kryss for å zoome inn, på den grønne knappen med strek for å zoome ut, eller på de grønne pilene for å se tilstøtende kart.


METAR-TAF: